sensor_id;sensor_type;location;lat;lon;timestamp;P1;durP1;ratioP1;P2;durP2;ratioP2
23078;SDS011;11707;50.830;4.364;2024-01-30T00:02:14;4.60;;;3.53;;
23078;SDS011;11707;50.830;4.364;2024-01-30T00:04:40;5.70;;;3.95;;
23078;SDS011;11707;50.830;4.364;2024-01-30T00:07:06;6.15;;;4.07;;
23078;SDS011;11707;50.830;4.364;2024-01-30T00:09:32;5.70;;;4.10;;
23078;SDS011;11707;50.830;4.364;2024-01-30T00:11:57;9.20;;;5.32;;
23078;SDS011;11707;50.830;4.364;2024-01-30T00:14:23;8.52;;;3.92;;
23078;SDS011;11707;50.830;4.364;2024-01-30T00:16:55;7.10;;;3.75;;
23078;SDS011;11707;50.830;4.364;2024-01-30T00:19:20;7.38;;;3.63;;
23078;SDS011;11707;50.830;4.364;2024-01-30T00:21:46;5.70;;;4.03;;
23078;SDS011;11707;50.830;4.364;2024-01-30T00:24:12;5.35;;;3.60;;
23078;SDS011;11707;50.830;4.364;2024-01-30T00:26:37;6.95;;;4.03;;
23078;SDS011;11707;50.830;4.364;2024-01-30T00:29:03;4.85;;;3.30;;
23078;SDS011;11707;50.830;4.364;2024-01-30T00:31:29;8.32;;;3.50;;
23078;SDS011;11707;50.830;4.364;2024-01-30T00:33:55;7.47;;;3.67;;
23078;SDS011;11707;50.830;4.364;2024-01-30T00:36:21;6.72;;;3.75;;
23078;SDS011;11707;50.830;4.364;2024-01-30T00:38:46;6.55;;;3.78;;
23078;SDS011;11707;50.830;4.364;2024-01-30T00:41:12;5.47;;;3.75;;
23078;SDS011;11707;50.830;4.364;2024-01-30T00:43:38;5.97;;;4.00;;
23078;SDS011;11707;50.830;4.364;2024-01-30T00:46:04;7.15;;;3.85;;
23078;SDS011;11707;50.830;4.364;2024-01-30T00:48:29;5.65;;;3.47;;
23078;SDS011;11707;50.830;4.364;2024-01-30T00:50:55;7.25;;;3.17;;
23078;SDS011;11707;50.830;4.364;2024-01-30T00:53:21;8.95;;;3.85;;
23078;SDS011;11707;50.830;4.364;2024-01-30T00:55:47;5.22;;;3.40;;
23078;SDS011;11707;50.830;4.364;2024-01-30T00:58:13;6.03;;;3.28;;
23078;SDS011;11707;50.830;4.364;2024-01-30T01:00:39;7.45;;;3.58;;
23078;SDS011;11707;50.830;4.364;2024-01-30T01:03:04;7.18;;;3.50;;
23078;SDS011;11707;50.830;4.364;2024-01-30T01:05:30;7.18;;;3.00;;
23078;SDS011;11707;50.830;4.364;2024-01-30T01:07:59;6.38;;;4.10;;
23078;SDS011;11707;50.830;4.364;2024-01-30T01:10:25;7.18;;;3.45;;
23078;SDS011;11707;50.830;4.364;2024-01-30T01:12:52;7.13;;;3.50;;
23078;SDS011;11707;50.830;4.364;2024-01-30T01:15:18;9.98;;;3.70;;
23078;SDS011;11707;50.830;4.364;2024-01-30T01:17:44;6.18;;;3.55;;
23078;SDS011;11707;50.830;4.364;2024-01-30T01:20:09;5.68;;;3.50;;
23078;SDS011;11707;50.830;4.364;2024-01-30T01:22:36;5.47;;;3.42;;
23078;SDS011;11707;50.830;4.364;2024-01-30T01:25:03;4.03;;;3.20;;
23078;SDS011;11707;50.830;4.364;2024-01-30T01:27:33;5.55;;;3.42;;
23078;SDS011;11707;50.830;4.364;2024-01-30T01:30:03;7.53;;;3.33;;
23078;SDS011;11707;50.830;4.364;2024-01-30T01:32:31;5.90;;;3.42;;
23078;SDS011;11707;50.830;4.364;2024-01-30T01:34:56;7.22;;;3.35;;
23078;SDS011;11707;50.830;4.364;2024-01-30T01:37:22;6.13;;;3.70;;
23078;SDS011;11707;50.830;4.364;2024-01-30T01:39:51;7.60;;;3.58;;
23078;SDS011;11707;50.830;4.364;2024-01-30T01:42:17;9.63;;;3.45;;
23078;SDS011;11707;50.830;4.364;2024-01-30T01:44:43;4.47;;;3.00;;
23078;SDS011;11707;50.830;4.364;2024-01-30T01:47:11;6.75;;;3.33;;
23078;SDS011;11707;50.830;4.364;2024-01-30T01:49:37;5.25;;;3.33;;
23078;SDS011;11707;50.830;4.364;2024-01-30T01:52:03;5.38;;;3.05;;
23078;SDS011;11707;50.830;4.364;2024-01-30T01:54:29;7.25;;;3.42;;
23078;SDS011;11707;50.830;4.364;2024-01-30T01:56:55;6.13;;;3.47;;
23078;SDS011;11707;50.830;4.364;2024-01-30T01:59:21;5.18;;;3.50;;
23078;SDS011;11707;50.830;4.364;2024-01-30T02:01:48;7.63;;;3.33;;
23078;SDS011;11707;50.830;4.364;2024-01-30T02:04:15;5.72;;;3.50;;
23078;SDS011;11707;50.830;4.364;2024-01-30T02:06:43;11.77;;;3.67;;
23078;SDS011;11707;50.830;4.364;2024-01-30T02:09:09;5.05;;;3.33;;
23078;SDS011;11707;50.830;4.364;2024-01-30T02:11:35;6.95;;;3.28;;
23078;SDS011;11707;50.830;4.364;2024-01-30T02:14:03;3.85;;;3.03;;
23078;SDS011;11707;50.830;4.364;2024-01-30T02:16:30;8.48;;;3.92;;
23078;SDS011;11707;50.830;4.364;2024-01-30T02:18:56;5.55;;;3.50;;
23078;SDS011;11707;50.830;4.364;2024-01-30T02:21:25;5.32;;;3.67;;
23078;SDS011;11707;50.830;4.364;2024-01-30T02:23:51;7.00;;;3.25;;
23078;SDS011;11707;50.830;4.364;2024-01-30T02:26:24;5.72;;;3.20;;
23078;SDS011;11707;50.830;4.364;2024-01-30T02:28:54;8.38;;;3.78;;
23078;SDS011;11707;50.830;4.364;2024-01-30T02:31:19;5.32;;;3.42;;
23078;SDS011;11707;50.830;4.364;2024-01-30T02:33:45;5.55;;;3.80;;
23078;SDS011;11707;50.830;4.364;2024-01-30T02:36:11;5.78;;;3.20;;
23078;SDS011;11707;50.830;4.364;2024-01-30T02:38:37;7.30;;;3.97;;
23078;SDS011;11707;50.830;4.364;2024-01-30T02:41:05;4.93;;;3.33;;
23078;SDS011;11707;50.830;4.364;2024-01-30T02:43:30;7.00;;;3.67;;
23078;SDS011;11707;50.830;4.364;2024-01-30T02:45:59;7.78;;;3.30;;
23078;SDS011;11707;50.830;4.364;2024-01-30T02:48:25;6.70;;;3.72;;
23078;SDS011;11707;50.830;4.364;2024-01-30T02:50:51;4.68;;;3.22;;
23078;SDS011;11707;50.830;4.364;2024-01-30T02:53:17;6.28;;;3.55;;
23078;SDS011;11707;50.830;4.364;2024-01-30T02:55:43;6.88;;;3.33;;
23078;SDS011;11707;50.830;4.364;2024-01-30T02:58:08;11.90;;;4.07;;
23078;SDS011;11707;50.830;4.364;2024-01-30T03:00:36;6.97;;;3.42;;
23078;SDS011;11707;50.830;4.364;2024-01-30T03:03:02;5.82;;;3.22;;
23078;SDS011;11707;50.830;4.364;2024-01-30T03:05:31;7.65;;;3.90;;
23078;SDS011;11707;50.830;4.364;2024-01-30T03:07:57;13.55;;;5.00;;
23078;SDS011;11707;50.830;4.364;2024-01-30T03:10:22;9.45;;;3.60;;
23078;SDS011;11707;50.830;4.364;2024-01-30T03:12:48;10.07;;;4.13;;
23078;SDS011;11707;50.830;4.364;2024-01-30T03:15:13;6.50;;;3.42;;
23078;SDS011;11707;50.830;4.364;2024-01-30T03:17:40;9.50;;;3.70;;
23078;SDS011;11707;50.830;4.364;2024-01-30T03:20:06;4.88;;;3.13;;
23078;SDS011;11707;50.830;4.364;2024-01-30T03:22:32;8.98;;;3.90;;
23078;SDS011;11707;50.830;4.364;2024-01-30T03:24:58;7.65;;;3.78;;
23078;SDS011;11707;50.830;4.364;2024-01-30T03:27:23;6.95;;;3.50;;
23078;SDS011;11707;50.830;4.364;2024-01-30T03:29:49;7.50;;;3.70;;
23078;SDS011;11707;50.830;4.364;2024-01-30T03:32:14;5.32;;;3.45;;
23078;SDS011;11707;50.830;4.364;2024-01-30T03:34:40;8.68;;;3.67;;
23078;SDS011;11707;50.830;4.364;2024-01-30T03:37:08;8.52;;;3.83;;
23078;SDS011;11707;50.830;4.364;2024-01-30T03:39:34;6.10;;;3.58;;
23078;SDS011;11707;50.830;4.364;2024-01-30T03:42:02;6.50;;;3.25;;
23078;SDS011;11707;50.830;4.364;2024-01-30T03:44:28;7.45;;;3.67;;
23078;SDS011;11707;50.830;4.364;2024-01-30T03:46:53;6.28;;;3.58;;
23078;SDS011;11707;50.830;4.364;2024-01-30T03:49:19;6.07;;;3.78;;
23078;SDS011;11707;50.830;4.364;2024-01-30T03:51:45;5.63;;;3.67;;
23078;SDS011;11707;50.830;4.364;2024-01-30T03:54:12;10.40;;;4.00;;
23078;SDS011;11707;50.830;4.364;2024-01-30T03:56:38;6.95;;;3.05;;
23078;SDS011;11707;50.830;4.364;2024-01-30T03:59:04;9.73;;;3.80;;
23078;SDS011;11707;50.830;4.364;2024-01-30T04:01:29;7.03;;;3.60;;
23078;SDS011;11707;50.830;4.364;2024-01-30T04:03:55;9.52;;;4.05;;
23078;SDS011;11707;50.830;4.364;2024-01-30T04:06:23;7.18;;;3.35;;
23078;SDS011;11707;50.830;4.364;2024-01-30T04:08:51;7.75;;;4.22;;
23078;SDS011;11707;50.830;4.364;2024-01-30T04:11:20;4.43;;;3.47;;
23078;SDS011;11707;50.830;4.364;2024-01-30T04:13:45;8.80;;;3.85;;
23078;SDS011;11707;50.830;4.364;2024-01-30T04:16:22;7.43;;;3.30;;
23078;SDS011;11707;50.830;4.364;2024-01-30T04:18:48;6.95;;;4.13;;
23078;SDS011;11707;50.830;4.364;2024-01-30T04:21:14;7.22;;;3.95;;
23078;SDS011;11707;50.830;4.364;2024-01-30T04:23:43;10.43;;;3.40;;
23078;SDS011;11707;50.830;4.364;2024-01-30T04:26:08;8.82;;;4.20;;
23078;SDS011;11707;50.830;4.364;2024-01-30T04:28:34;10.75;;;4.95;;
23078;SDS011;11707;50.830;4.364;2024-01-30T04:31:00;7.30;;;3.97;;
23078;SDS011;11707;50.830;4.364;2024-01-30T04:33:28;11.20;;;4.25;;
23078;SDS011;11707;50.830;4.364;2024-01-30T04:35:54;4.70;;;3.28;;
23078;SDS011;11707;50.830;4.364;2024-01-30T04:38:25;6.93;;;4.25;;
23078;SDS011;11707;50.830;4.364;2024-01-30T04:40:54;5.68;;;4.15;;
23078;SDS011;11707;50.830;4.364;2024-01-30T04:43:19;5.53;;;3.67;;
23078;SDS011;11707;50.830;4.364;2024-01-30T04:45:45;8.48;;;4.03;;
23078;SDS011;11707;50.830;4.364;2024-01-30T04:48:11;7.55;;;3.80;;
23078;SDS011;11707;50.830;4.364;2024-01-30T04:50:36;8.38;;;4.07;;
23078;SDS011;11707;50.830;4.364;2024-01-30T04:53:02;7.18;;;3.42;;
23078;SDS011;11707;50.830;4.364;2024-01-30T04:55:31;7.13;;;4.25;;
23078;SDS011;11707;50.830;4.364;2024-01-30T04:57:56;8.00;;;3.75;;
23078;SDS011;11707;50.830;4.364;2024-01-30T05:00:25;7.80;;;3.42;;
23078;SDS011;11707;50.830;4.364;2024-01-30T05:02:50;7.57;;;3.83;;
23078;SDS011;11707;50.830;4.364;2024-01-30T05:05:16;5.95;;;3.83;;
23078;SDS011;11707;50.830;4.364;2024-01-30T05:07:41;11.00;;;4.05;;
23078;SDS011;11707;50.830;4.364;2024-01-30T05:10:07;8.20;;;3.90;;
23078;SDS011;11707;50.830;4.364;2024-01-30T05:12:33;8.27;;;4.07;;
23078;SDS011;11707;50.830;4.364;2024-01-30T05:14:59;5.35;;;3.65;;
23078;SDS011;11707;50.830;4.364;2024-01-30T05:17:25;7.38;;;3.60;;
23078;SDS011;11707;50.830;4.364;2024-01-30T05:19:50;10.48;;;4.63;;
23078;SDS011;11707;50.830;4.364;2024-01-30T05:22:16;6.30;;;3.83;;
23078;SDS011;11707;50.830;4.364;2024-01-30T05:24:43;7.88;;;4.45;;
23078;SDS011;11707;50.830;4.364;2024-01-30T05:27:09;8.60;;;4.20;;
23078;SDS011;11707;50.830;4.364;2024-01-30T05:29:35;6.45;;;3.50;;
23078;SDS011;11707;50.830;4.364;2024-01-30T05:32:01;10.68;;;4.50;;
23078;SDS011;11707;50.830;4.364;2024-01-30T05:34:30;7.88;;;4.40;;
23078;SDS011;11707;50.830;4.364;2024-01-30T05:36:58;8.48;;;4.15;;
23078;SDS011;11707;50.830;4.364;2024-01-30T05:39:24;7.53;;;3.88;;
23078;SDS011;11707;50.830;4.364;2024-01-30T05:41:52;5.97;;;4.00;;
23078;SDS011;11707;50.830;4.364;2024-01-30T05:44:17;8.13;;;3.45;;
23078;SDS011;11707;50.830;4.364;2024-01-30T05:46:45;10.80;;;5.97;;
23078;SDS011;11707;50.830;4.364;2024-01-30T05:49:11;8.68;;;4.65;;
23078;SDS011;11707;50.830;4.364;2024-01-30T05:51:37;7.20;;;4.57;;
23078;SDS011;11707;50.830;4.364;2024-01-30T05:54:02;8.10;;;4.78;;
23078;SDS011;11707;50.830;4.364;2024-01-30T05:56:32;9.10;;;4.20;;
23078;SDS011;11707;50.830;4.364;2024-01-30T05:59:02;7.78;;;3.83;;
23078;SDS011;11707;50.830;4.364;2024-01-30T06:01:27;7.25;;;3.88;;
23078;SDS011;11707;50.830;4.364;2024-01-30T06:03:54;9.90;;;4.00;;
23078;SDS011;11707;50.830;4.364;2024-01-30T06:06:20;8.65;;;4.28;;
23078;SDS011;11707;50.830;4.364;2024-01-30T06:08:46;7.63;;;4.35;;
23078;SDS011;11707;50.830;4.364;2024-01-30T06:11:12;9.77;;;4.90;;
23078;SDS011;11707;50.830;4.364;2024-01-30T06:13:39;9.02;;;4.40;;
23078;SDS011;11707;50.830;4.364;2024-01-30T06:16:08;7.10;;;4.10;;
23078;SDS011;11707;50.830;4.364;2024-01-30T06:18:37;6.38;;;4.78;;
23078;SDS011;11707;50.830;4.364;2024-01-30T06:21:05;8.75;;;5.05;;
23078;SDS011;11707;50.830;4.364;2024-01-30T06:23:31;5.28;;;4.03;;
23078;SDS011;11707;50.830;4.364;2024-01-30T06:25:56;8.13;;;4.13;;
23078;SDS011;11707;50.830;4.364;2024-01-30T06:28:24;8.48;;;4.57;;
23078;SDS011;11707;50.830;4.364;2024-01-30T06:30:50;13.80;;;6.07;;
23078;SDS011;11707;50.830;4.364;2024-01-30T06:33:18;11.90;;;4.70;;
23078;SDS011;11707;50.830;4.364;2024-01-30T06:35:43;9.55;;;4.70;;
23078;SDS011;11707;50.830;4.364;2024-01-30T06:38:11;11.60;;;4.15;;
23078;SDS011;11707;50.830;4.364;2024-01-30T06:40:41;13.18;;;5.63;;
23078;SDS011;11707;50.830;4.364;2024-01-30T06:43:07;10.55;;;4.97;;
23078;SDS011;11707;50.830;4.364;2024-01-30T06:45:33;8.07;;;4.47;;
23078;SDS011;11707;50.830;4.364;2024-01-30T06:47:59;7.35;;;4.38;;
23078;SDS011;11707;50.830;4.364;2024-01-30T06:50:25;8.88;;;5.18;;
23078;SDS011;11707;50.830;4.364;2024-01-30T06:52:51;8.45;;;4.97;;
23078;SDS011;11707;50.830;4.364;2024-01-30T06:55:17;12.43;;;3.97;;
23078;SDS011;11707;50.830;4.364;2024-01-30T06:57:43;8.88;;;4.50;;
23078;SDS011;11707;50.830;4.364;2024-01-30T07:00:09;10.95;;;4.97;;
23078;SDS011;11707;50.830;4.364;2024-01-30T07:02:36;10.98;;;5.40;;
23078;SDS011;11707;50.830;4.364;2024-01-30T07:05:01;12.55;;;5.28;;
23078;SDS011;11707;50.830;4.364;2024-01-30T07:07:30;13.18;;;5.68;;
23078;SDS011;11707;50.830;4.364;2024-01-30T07:09:55;13.40;;;4.75;;
23078;SDS011;11707;50.830;4.364;2024-01-30T07:12:24;9.85;;;5.13;;
23078;SDS011;11707;50.830;4.364;2024-01-30T07:14:51;7.63;;;4.18;;
23078;SDS011;11707;50.830;4.364;2024-01-30T07:17:17;8.02;;;4.53;;
23078;SDS011;11707;50.830;4.364;2024-01-30T07:19:42;11.82;;;4.93;;
23078;SDS011;11707;50.830;4.364;2024-01-30T07:22:11;7.38;;;4.90;;
23078;SDS011;11707;50.830;4.364;2024-01-30T07:24:41;9.80;;;5.30;;
23078;SDS011;11707;50.830;4.364;2024-01-30T07:27:12;11.40;;;4.93;;
23078;SDS011;11707;50.830;4.364;2024-01-30T07:29:38;18.50;;;8.48;;
23078;SDS011;11707;50.830;4.364;2024-01-30T07:32:04;14.98;;;5.38;;
23078;SDS011;11707;50.830;4.364;2024-01-30T07:34:29;11.65;;;5.93;;
23078;SDS011;11707;50.830;4.364;2024-01-30T07:36:55;13.75;;;5.68;;
23078;SDS011;11707;50.830;4.364;2024-01-30T07:39:21;11.82;;;5.47;;
23078;SDS011;11707;50.830;4.364;2024-01-30T07:41:47;13.20;;;5.53;;
23078;SDS011;11707;50.830;4.364;2024-01-30T07:44:12;17.85;;;6.18;;
23078;SDS011;11707;50.830;4.364;2024-01-30T07:46:38;14.50;;;6.30;;
23078;SDS011;11707;50.830;4.364;2024-01-30T07:49:04;17.50;;;5.65;;
23078;SDS011;11707;50.830;4.364;2024-01-30T07:51:29;9.38;;;5.32;;
23078;SDS011;11707;50.830;4.364;2024-01-30T07:53:58;13.27;;;5.63;;
23078;SDS011;11707;50.830;4.364;2024-01-30T07:56:24;13.27;;;5.72;;
23078;SDS011;11707;50.830;4.364;2024-01-30T07:58:49;14.55;;;6.30;;
23078;SDS011;11707;50.830;4.364;2024-01-30T08:01:18;10.68;;;6.25;;
23078;SDS011;11707;50.830;4.364;2024-01-30T08:03:44;17.30;;;6.93;;
23078;SDS011;11707;50.830;4.364;2024-01-30T08:06:10;14.27;;;5.90;;
23078;SDS011;11707;50.830;4.364;2024-01-30T08:08:36;11.18;;;5.78;;
23078;SDS011;11707;50.830;4.364;2024-01-30T08:11:03;14.57;;;6.55;;
23078;SDS011;11707;50.830;4.364;2024-01-30T08:13:28;11.70;;;5.80;;
23078;SDS011;11707;50.830;4.364;2024-01-30T08:15:54;14.60;;;6.07;;
23078;SDS011;11707;50.830;4.364;2024-01-30T08:18:22;11.85;;;6.25;;
23078;SDS011;11707;50.830;4.364;2024-01-30T08:20:51;17.75;;;6.55;;
23078;SDS011;11707;50.830;4.364;2024-01-30T08:23:17;15.63;;;7.47;;
23078;SDS011;11707;50.830;4.364;2024-01-30T08:25:43;13.65;;;6.45;;
23078;SDS011;11707;50.830;4.364;2024-01-30T08:28:10;15.10;;;6.38;;
23078;SDS011;11707;50.830;4.364;2024-01-30T08:30:36;10.25;;;5.53;;
23078;SDS011;11707;50.830;4.364;2024-01-30T08:33:04;18.02;;;6.13;;
23078;SDS011;11707;50.830;4.364;2024-01-30T08:35:29;11.10;;;5.80;;
23078;SDS011;11707;50.830;4.364;2024-01-30T08:37:58;17.38;;;6.63;;
23078;SDS011;11707;50.830;4.364;2024-01-30T08:40:24;10.75;;;6.28;;
23078;SDS011;11707;50.830;4.364;2024-01-30T08:42:50;12.18;;;6.00;;
23078;SDS011;11707;50.830;4.364;2024-01-30T08:45:15;19.25;;;6.53;;
23078;SDS011;11707;50.830;4.364;2024-01-30T08:47:41;32.40;;;8.10;;
23078;SDS011;11707;50.830;4.364;2024-01-30T08:50:07;12.38;;;5.65;;
23078;SDS011;11707;50.830;4.364;2024-01-30T08:52:33;14.23;;;6.28;;
23078;SDS011;11707;50.830;4.364;2024-01-30T08:54:59;13.65;;;6.63;;
23078;SDS011;11707;50.830;4.364;2024-01-30T08:57:25;11.45;;;5.65;;
23078;SDS011;11707;50.830;4.364;2024-01-30T08:59:53;13.68;;;5.75;;
23078;SDS011;11707;50.830;4.364;2024-01-30T09:02:19;12.60;;;6.65;;
23078;SDS011;11707;50.830;4.364;2024-01-30T09:04:45;12.05;;;5.40;;
23078;SDS011;11707;50.830;4.364;2024-01-30T09:07:11;16.35;;;5.55;;
23078;SDS011;11707;50.830;4.364;2024-01-30T09:09:38;8.18;;;5.00;;
23078;SDS011;11707;50.830;4.364;2024-01-30T09:12:06;10.05;;;5.43;;
23078;SDS011;11707;50.830;4.364;2024-01-30T09:14:34;10.63;;;6.38;;
23078;SDS011;11707;50.830;4.364;2024-01-30T09:17:07;15.18;;;6.30;;
23078;SDS011;11707;50.830;4.364;2024-01-30T09:19:33;19.88;;;6.72;;
23078;SDS011;11707;50.830;4.364;2024-01-30T09:21:59;18.63;;;6.90;;
23078;SDS011;11707;50.830;4.364;2024-01-30T09:24:26;12.60;;;6.30;;
23078;SDS011;11707;50.830;4.364;2024-01-30T09:26:52;12.40;;;6.93;;
23078;SDS011;11707;50.830;4.364;2024-01-30T09:29:19;17.30;;;7.18;;
23078;SDS011;11707;50.830;4.364;2024-01-30T09:31:46;19.33;;;8.05;;
23078;SDS011;11707;50.830;4.364;2024-01-30T09:34:12;13.52;;;6.82;;
23078;SDS011;11707;50.830;4.364;2024-01-30T09:36:38;21.15;;;7.53;;
23078;SDS011;11707;50.830;4.364;2024-01-30T09:39:04;20.85;;;7.80;;
23078;SDS011;11707;50.830;4.364;2024-01-30T09:41:32;18.85;;;7.28;;
23078;SDS011;11707;50.830;4.364;2024-01-30T09:44:00;14.65;;;7.22;;
23078;SDS011;11707;50.830;4.364;2024-01-30T09:46:27;15.82;;;7.32;;
23078;SDS011;11707;50.830;4.364;2024-01-30T09:48:56;19.23;;;8.68;;
23078;SDS011;11707;50.830;4.364;2024-01-30T09:51:23;16.10;;;8.68;;
23078;SDS011;11707;50.830;4.364;2024-01-30T09:53:50;24.48;;;9.05;;
23078;SDS011;11707;50.830;4.364;2024-01-30T09:56:17;16.92;;;7.95;;
23078;SDS011;11707;50.830;4.364;2024-01-30T09:58:44;16.83;;;9.07;;
23078;SDS011;11707;50.830;4.364;2024-01-30T10:01:10;14.20;;;7.22;;
23078;SDS011;11707;50.830;4.364;2024-01-30T10:03:38;28.48;;;10.18;;
23078;SDS011;11707;50.830;4.364;2024-01-30T10:06:04;15.40;;;8.57;;
23078;SDS011;11707;50.830;4.364;2024-01-30T10:08:32;27.00;;;8.98;;
23078;SDS011;11707;50.830;4.364;2024-01-30T10:10:58;18.95;;;8.50;;
23078;SDS011;11707;50.830;4.364;2024-01-30T10:13:24;14.68;;;7.70;;
23078;SDS011;11707;50.830;4.364;2024-01-30T10:15:50;15.50;;;8.40;;
23078;SDS011;11707;50.830;4.364;2024-01-30T10:18:17;16.17;;;8.98;;
23078;SDS011;11707;50.830;4.364;2024-01-30T10:20:43;17.70;;;9.25;;
23078;SDS011;11707;50.830;4.364;2024-01-30T10:23:08;17.90;;;8.68;;
23078;SDS011;11707;50.830;4.364;2024-01-30T10:25:35;15.05;;;7.93;;
23078;SDS011;11707;50.830;4.364;2024-01-30T10:28:06;20.95;;;9.93;;
23078;SDS011;11707;50.830;4.364;2024-01-30T10:30:34;13.43;;;7.50;;
23078;SDS011;11707;50.830;4.364;2024-01-30T10:33:00;16.85;;;8.07;;
23078;SDS011;11707;50.830;4.364;2024-01-30T10:35:25;17.15;;;8.10;;
23078;SDS011;11707;50.830;4.364;2024-01-30T10:37:51;16.02;;;8.32;;
23078;SDS011;11707;50.830;4.364;2024-01-30T10:40:17;16.35;;;7.30;;
23078;SDS011;11707;50.830;4.364;2024-01-30T10:42:46;16.20;;;8.45;;
23078;SDS011;11707;50.830;4.364;2024-01-30T10:45:15;15.93;;;7.53;;
23078;SDS011;11707;50.830;4.364;2024-01-30T10:47:50;23.30;;;8.07;;
23078;SDS011;11707;50.830;4.364;2024-01-30T10:50:18;15.00;;;8.48;;
23078;SDS011;11707;50.830;4.364;2024-01-30T10:52:47;12.65;;;7.43;;
23078;SDS011;11707;50.830;4.364;2024-01-30T10:55:14;16.27;;;7.72;;
23078;SDS011;11707;50.830;4.364;2024-01-30T10:57:41;12.80;;;6.90;;
23078;SDS011;11707;50.830;4.364;2024-01-30T11:00:08;16.65;;;6.35;;
23078;SDS011;11707;50.830;4.364;2024-01-30T11:02:39;15.45;;;6.30;;
23078;SDS011;11707;50.830;4.364;2024-01-30T11:07:35;18.45;;;6.53;;
23078;SDS011;11707;50.830;4.364;2024-01-30T11:10:02;14.15;;;6.07;;
23078;SDS011;11707;50.830;4.364;2024-01-30T11:12:37;14.80;;;5.93;;
23078;SDS011;11707;50.830;4.364;2024-01-30T11:15:18;14.20;;;5.38;;
23078;SDS011;11707;50.830;4.364;2024-01-30T11:17:50;11.82;;;5.38;;
23078;SDS011;11707;50.830;4.364;2024-01-30T11:20:29;11.20;;;5.10;;
23078;SDS011;11707;50.830;4.364;2024-01-30T11:23:01;8.93;;;3.60;;
23078;SDS011;11707;50.830;4.364;2024-01-30T11:25:31;12.32;;;4.05;;
23078;SDS011;11707;50.830;4.364;2024-01-30T11:27:57;7.72;;;3.20;;
23078;SDS011;11707;50.830;4.364;2024-01-30T11:30:27;7.10;;;2.63;;
23078;SDS011;11707;50.830;4.364;2024-01-30T11:35:32;10.10;;;2.10;;
23078;SDS011;11707;50.830;4.364;2024-01-30T11:37:59;6.07;;;1.30;;
23078;SDS011;11707;50.830;4.364;2024-01-30T11:40:29;6.40;;;1.63;;
23078;SDS011;11707;50.830;4.364;2024-01-30T11:43:03;6.90;;;1.42;;
23078;SDS011;11707;50.830;4.364;2024-01-30T11:45:33;2.67;;;1.30;;
23078;SDS011;11707;50.830;4.364;2024-01-30T11:47:59;5.60;;;1.55;;
23078;SDS011;11707;50.830;4.364;2024-01-30T11:50:28;5.70;;;1.25;;
23078;SDS011;11707;50.830;4.364;2024-01-30T11:53:04;6.32;;;1.58;;
23078;SDS011;11707;50.830;4.364;2024-01-30T11:55:30;3.72;;;1.30;;
23078;SDS011;11707;50.830;4.364;2024-01-30T11:57:58;4.43;;;1.10;;
23078;SDS011;11707;50.830;4.364;2024-01-30T12:00:24;4.55;;;1.30;;
23078;SDS011;11707;50.830;4.364;2024-01-30T12:02:51;5.28;;;1.30;;
23078;SDS011;11707;50.830;4.364;2024-01-30T12:05:20;4.63;;;1.13;;
23078;SDS011;11707;50.830;4.364;2024-01-30T12:07:49;4.70;;;1.10;;
23078;SDS011;11707;50.830;4.364;2024-01-30T12:10:16;5.05;;;0.90;;
23078;SDS011;11707;50.830;4.364;2024-01-30T12:12:45;5.47;;;1.10;;
23078;SDS011;11707;50.830;4.364;2024-01-30T12:15:14;6.57;;;1.40;;
23078;SDS011;11707;50.830;4.364;2024-01-30T12:17:41;2.00;;;0.70;;
23078;SDS011;11707;50.830;4.364;2024-01-30T12:20:12;3.92;;;1.00;;
23078;SDS011;11707;50.830;4.364;2024-01-30T12:22:42;3.75;;;0.70;;
23078;SDS011;11707;50.830;4.364;2024-01-30T12:25:10;7.32;;;1.60;;
23078;SDS011;11707;50.830;4.364;2024-01-30T12:27:43;3.80;;;0.77;;
23078;SDS011;11707;50.830;4.364;2024-01-30T12:30:11;5.85;;;0.90;;
23078;SDS011;11707;50.830;4.364;2024-01-30T12:32:39;3.80;;;1.08;;
23078;SDS011;11707;50.830;4.364;2024-01-30T12:35:14;6.55;;;1.17;;
23078;SDS011;11707;50.830;4.364;2024-01-30T12:37:42;3.05;;;0.73;;
23078;SDS011;11707;50.830;4.364;2024-01-30T12:40:13;8.75;;;0.93;;
23078;SDS011;11707;50.830;4.364;2024-01-30T12:42:40;3.95;;;0.93;;
23078;SDS011;11707;50.830;4.364;2024-01-30T12:45:08;4.68;;;0.90;;
23078;SDS011;11707;50.830;4.364;2024-01-30T12:47:37;5.18;;;0.65;;
23078;SDS011;11707;50.830;4.364;2024-01-30T12:50:03;7.90;;;0.93;;
23078;SDS011;11707;50.830;4.364;2024-01-30T12:52:29;4.93;;;0.60;;
23078;SDS011;11707;50.830;4.364;2024-01-30T12:54:54;4.95;;;1.00;;
23078;SDS011;11707;50.830;4.364;2024-01-30T12:57:20;8.13;;;1.33;;
23078;SDS011;11707;50.830;4.364;2024-01-30T12:59:46;9.07;;;4.18;;
23078;SDS011;11707;50.830;4.364;2024-01-30T13:02:14;6.65;;;1.58;;
23078;SDS011;11707;50.830;4.364;2024-01-30T13:04:41;2.53;;;0.80;;
23078;SDS011;11707;50.830;4.364;2024-01-30T13:07:09;8.70;;;1.17;;
23078;SDS011;11707;50.830;4.364;2024-01-30T13:09:35;3.25;;;0.82;;
23078;SDS011;11707;50.830;4.364;2024-01-30T13:12:05;7.22;;;1.00;;
23078;SDS011;11707;50.830;4.364;2024-01-30T13:14:32;7.72;;;1.02;;
23078;SDS011;11707;50.830;4.364;2024-01-30T13:16:58;7.60;;;1.13;;
23078;SDS011;11707;50.830;4.364;2024-01-30T13:19:24;11.50;;;1.38;;
23078;SDS011;11707;50.830;4.364;2024-01-30T13:21:49;3.97;;;0.82;;
23078;SDS011;11707;50.830;4.364;2024-01-30T13:24:17;6.00;;;1.20;;
23078;SDS011;11707;50.830;4.364;2024-01-30T13:26:46;5.88;;;1.52;;
23078;SDS011;11707;50.830;4.364;2024-01-30T13:29:12;9.63;;;1.50;;
23078;SDS011;11707;50.830;4.364;2024-01-30T13:31:37;4.93;;;1.52;;
23078;SDS011;11707;50.830;4.364;2024-01-30T13:34:04;7.38;;;1.88;;
23078;SDS011;11707;50.830;4.364;2024-01-30T13:36:32;10.25;;;1.42;;
23078;SDS011;11707;50.830;4.364;2024-01-30T13:38:57;8.20;;;1.67;;
23078;SDS011;11707;50.830;4.364;2024-01-30T13:41:23;9.13;;;1.20;;
23078;SDS011;11707;50.830;4.364;2024-01-30T13:43:51;8.82;;;1.38;;
23078;SDS011;11707;50.830;4.364;2024-01-30T13:46:18;6.43;;;1.38;;
23078;SDS011;11707;50.830;4.364;2024-01-30T13:48:44;8.40;;;1.48;;
23078;SDS011;11707;50.830;4.364;2024-01-30T13:51:10;4.03;;;1.13;;
23078;SDS011;11707;50.830;4.364;2024-01-30T13:53:42;5.18;;;1.40;;
23078;SDS011;11707;50.830;4.364;2024-01-30T13:56:07;12.00;;;1.63;;
23078;SDS011;11707;50.830;4.364;2024-01-30T13:58:36;7.22;;;1.33;;
23078;SDS011;11707;50.830;4.364;2024-01-30T14:01:02;7.38;;;1.55;;
23078;SDS011;11707;50.830;4.364;2024-01-30T14:03:27;7.63;;;1.52;;
23078;SDS011;11707;50.830;4.364;2024-01-30T14:05:54;3.58;;;1.10;;
23078;SDS011;11707;50.830;4.364;2024-01-30T14:08:19;5.80;;;1.10;;
23078;SDS011;11707;50.830;4.364;2024-01-30T14:10:48;5.47;;;1.23;;
23078;SDS011;11707;50.830;4.364;2024-01-30T14:13:14;5.65;;;1.33;;
23078;SDS011;11707;50.830;4.364;2024-01-30T14:15:40;8.00;;;1.40;;
23078;SDS011;11707;50.830;4.364;2024-01-30T14:18:05;4.05;;;1.02;;
23078;SDS011;11707;50.830;4.364;2024-01-30T14:20:33;2.42;;;0.80;;
23078;SDS011;11707;50.830;4.364;2024-01-30T14:22:59;6.22;;;1.27;;
23078;SDS011;11707;50.830;4.364;2024-01-30T14:25:25;5.78;;;0.90;;
23078;SDS011;11707;50.830;4.364;2024-01-30T14:27:51;6.05;;;1.13;;
23078;SDS011;11707;50.830;4.364;2024-01-30T14:30:17;4.05;;;1.00;;
23078;SDS011;11707;50.830;4.364;2024-01-30T14:32:43;2.97;;;0.80;;
23078;SDS011;11707;50.830;4.364;2024-01-30T14:35:10;5.72;;;1.30;;
23078;SDS011;11707;50.830;4.364;2024-01-30T14:37:36;2.17;;;0.90;;
23078;SDS011;11707;50.830;4.364;2024-01-30T14:40:05;4.82;;;1.25;;
23078;SDS011;11707;50.830;4.364;2024-01-30T14:42:34;6.10;;;1.08;;
23078;SDS011;11707;50.830;4.364;2024-01-30T14:45:02;5.50;;;1.13;;
23078;SDS011;11707;50.830;4.364;2024-01-30T14:47:28;5.50;;;1.50;;